sensor_id;sensor_type;location;lat;lon;timestamp;pressure;altitude;pressure_sealevel;temperature;humidity
39083;BME280;24834;44.444;26.098;2022-07-29T04:06:20;100744.22;;;25.34;
39083;BME280;24834;44.444;26.098;2022-07-29T04:12:23;100758.53;;;25.52;
39083;BME280;24834;44.444;26.098;2022-07-29T04:18:26;100764.63;;;25.42;
39083;BME280;24834;44.444;26.098;2022-07-29T04:24:28;100770.78;;;25.39;
39083;BME280;24834;44.444;26.098;2022-07-29T04:30:33;100773.16;;;25.51;
39083;BME280;24834;44.444;26.098;2022-07-29T04:36:36;100776.09;;;25.32;
39083;BME280;24834;44.444;26.098;2022-07-29T04:42:39;100770.81;;;25.50;
39083;BME280;24834;44.444;26.098;2022-07-29T04:48:48;100777.38;;;25.52;
39083;BME280;24834;44.444;26.098;2022-07-29T04:54:51;100777.03;;;25.57;
39083;BME280;24834;44.444;26.098;2022-07-29T05:00:53;100775.47;;;25.56;
39083;BME280;24834;44.444;26.098;2022-07-29T05:06:57;100778.25;;;25.70;
39083;BME280;24834;44.444;26.098;2022-07-29T05:13:00;100774.00;;;25.69;
39083;BME280;24834;44.444;26.098;2022-07-29T05:19:02;100781.03;;;25.88;
39083;BME280;24834;44.444;26.098;2022-07-29T05:25:06;100783.78;;;26.09;
39083;BME280;24834;44.444;26.098;2022-07-29T05:31:11;100786.56;;;26.34;
39083;BME280;24834;44.444;26.098;2022-07-29T05:37:13;100790.41;;;26.26;
39083;BME280;24834;44.444;26.098;2022-07-29T05:43:17;100797.78;;;26.75;
39083;BME280;24834;44.444;26.098;2022-07-29T05:49:20;100790.44;;;26.75;
39083;BME280;24834;44.444;26.098;2022-07-29T05:55:28;100798.13;;;27.19;
39083;BME280;24834;44.444;26.098;2022-07-29T06:01:32;100796.59;;;27.36;
39083;BME280;24834;44.444;26.098;2022-07-29T06:07:34;100794.94;;;27.56;
39083;BME280;24834;44.444;26.098;2022-07-29T06:13:37;100798.78;;;27.69;
39083;BME280;24834;44.444;26.098;2022-07-29T06:19:38;100803.22;;;28.07;
39083;BME280;24834;44.444;26.098;2022-07-29T06:25:40;100791.75;;;28.47;
39083;BME280;24834;44.444;26.098;2022-07-29T06:31:43;100792.09;;;28.53;
39083;BME280;24834;44.444;26.098;2022-07-29T06:37:45;100782.81;;;28.94;
39083;BME280;24834;44.444;26.098;2022-07-29T06:43:50;100786.41;;;29.22;
39083;BME280;24834;44.444;26.098;2022-07-29T06:49:55;100787.31;;;29.45;
39083;BME280;24834;44.444;26.098;2022-07-29T06:55:59;100786.56;;;29.98;
39083;BME280;24834;44.444;26.098;2022-07-29T07:02:04;100774.91;;;30.70;
39083;BME280;24834;44.444;26.098;2022-07-29T07:08:06;100777.38;;;30.84;
39083;BME280;24834;44.444;26.098;2022-07-29T07:14:08;100778.22;;;31.21;
39083;BME280;24834;44.444;26.098;2022-07-29T07:20:10;100765.63;;;30.91;
39083;BME280;24834;44.444;26.098;2022-07-29T07:26:13;100764.41;;;31.67;
39083;BME280;24834;44.444;26.098;2022-07-29T07:32:16;100764.75;;;32.33;
39083;BME280;24834;44.444;26.098;2022-07-29T07:38:18;100765.38;;;32.25;
39083;BME280;24834;44.444;26.098;2022-07-29T07:44:22;100762.19;;;32.42;
39083;BME280;24834;44.444;26.098;2022-07-29T07:50:25;100772.72;;;32.56;
39083;BME280;24834;44.444;26.098;2022-07-29T07:56:28;100765.25;;;32.73;
39083;BME280;24834;44.444;26.098;2022-07-29T08:02:35;100766.56;;;33.10;
39083;BME280;24834;44.444;26.098;2022-07-29T08:08:45;100767.72;;;32.96;
39083;BME280;24834;44.444;26.098;2022-07-29T08:14:47;100771.72;;;32.50;
39083;BME280;24834;44.444;26.098;2022-07-29T08:20:49;100769.34;;;32.65;
39083;BME280;24834;44.444;26.098;2022-07-29T08:26:52;100763.28;;;32.45;
39083;BME280;24834;44.444;26.098;2022-07-29T08:32:55;100760.47;;;32.48;
39083;BME280;24834;44.444;26.098;2022-07-29T08:39:01;100752.47;;;32.70;
39083;BME280;24834;44.444;26.098;2022-07-29T08:45:04;100757.84;;;33.40;
39083;BME280;24834;44.444;26.098;2022-07-29T08:51:07;100740.25;;;33.03;
39083;BME280;24834;44.444;26.098;2022-07-29T08:57:15;100739.53;;;33.53;
39083;BME280;24834;44.444;26.098;2022-07-29T09:03:20;100737.09;;;33.30;
39083;BME280;24834;44.444;26.098;2022-07-29T09:09:24;100742.25;;;33.53;
39083;BME280;24834;44.444;26.098;2022-07-29T09:15:28;100736.47;;;33.97;
39083;BME280;24834;44.444;26.098;2022-07-29T09:21:40;100733.03;;;34.40;
39083;BME280;24834;44.444;26.098;2022-07-29T09:28:12;100728.97;;;34.23;
39083;BME280;24834;44.444;26.098;2022-07-29T09:34:16;100740.34;;;34.65;
39083;BME280;24834;44.444;26.098;2022-07-29T09:40:25;100728.09;;;34.48;
39083;BME280;24834;44.444;26.098;2022-07-29T09:46:28;100733.38;;;34.42;
39083;BME280;24834;44.444;26.098;2022-07-29T09:52:31;100720.22;;;34.28;
39083;BME280;24834;44.444;26.098;2022-07-29T09:58:34;100710.41;;;34.40;
39083;BME280;24834;44.444;26.098;2022-07-29T10:04:41;100713.78;;;34.22;
39083;BME280;24834;44.444;26.098;2022-07-29T10:10:43;100711.25;;;34.06;
39083;BME280;24834;44.444;26.098;2022-07-29T10:16:47;100698.38;;;34.28;
39083;BME280;24834;44.444;26.098;2022-07-29T10:22:50;100705.50;;;34.56;
39083;BME280;24834;44.444;26.098;2022-07-29T10:28:55;100703.25;;;35.25;
39083;BME280;24834;44.444;26.098;2022-07-29T10:47:37;100669.06;;;35.21;
39083;BME280;24834;44.444;26.098;2022-07-29T10:53:51;100673.06;;;35.56;
39083;BME280;24834;44.444;26.098;2022-07-29T11:06:06;100650.41;;;35.46;
39083;BME280;24834;44.444;26.098;2022-07-29T11:25:27;100633.66;;;35.53;
39083;BME280;24834;44.444;26.098;2022-07-29T11:31:52;100623.13;;;36.15;
39083;BME280;24834;44.444;26.098;2022-07-29T11:38:38;100624.69;;;35.98;
39083;BME280;24834;44.444;26.098;2022-07-29T11:45:03;100612.56;;;35.72;
39083;BME280;24834;44.444;26.098;2022-07-29T11:51:29;100598.81;;;35.99;
39083;BME280;24834;44.444;26.098;2022-07-29T11:57:34;100589.09;;;35.98;
39083;BME280;24834;44.444;26.098;2022-07-29T12:04:07;100584.38;;;35.89;
